createdAt,value
2018-12-16T00:00:19.505Z,20.43
2018-12-16T00:02:47.049Z,20.30
2018-12-16T00:05:14.611Z,22.13
2018-12-16T00:07:42.145Z,19.97
2018-12-16T00:10:09.675Z,24.43
2018-12-16T00:12:37.233Z,23.23
2018-12-16T00:15:05.318Z,22.60
2018-12-16T00:17:32.867Z,20.93
2018-12-16T00:20:00.413Z,21.07
2018-12-16T00:22:29.968Z,21.10
2018-12-16T00:24:58.309Z,20.57
2018-12-16T00:27:25.972Z,19.63
2018-12-16T00:29:53.653Z,20.73
2018-12-16T00:32:21.214Z,17.43
2018-12-16T00:34:48.731Z,19.90
2018-12-16T00:37:16.256Z,24.07
2018-12-16T00:39:43.813Z,18.93
2018-12-16T00:42:11.346Z,20.03
2018-12-16T00:44:38.965Z,20.43
2018-12-16T00:47:06.498Z,19.60
2018-12-16T00:49:34.035Z,19.30
2018-12-16T00:52:01.597Z,21.53
2018-12-16T00:54:29.160Z,18.13
2018-12-16T00:56:56.998Z,18.50
2018-12-16T00:59:24.508Z,19.40
2018-12-16T01:01:52.063Z,18.13
2018-12-16T01:04:19.879Z,20.23
2018-12-16T01:06:47.444Z,20.97
2018-12-16T01:09:15.015Z,21.30
2018-12-16T01:11:42.556Z,20.80
2018-12-16T01:14:10.109Z,20.07
2018-12-16T01:16:37.634Z,22.47
2018-12-16T01:19:05.190Z,20.67
2018-12-16T01:21:33.083Z,18.83
2018-12-16T01:24:00.732Z,18.47
2018-12-16T01:26:28.306Z,19.67
2018-12-16T01:28:55.816Z,19.80
2018-12-16T01:31:23.401Z,15.80
2018-12-16T01:33:50.991Z,17.73
2018-12-16T01:36:18.554Z,16.43
2018-12-16T01:38:46.113Z,17.53
2018-12-16T01:41:13.637Z,17.30
2018-12-16T01:43:41.236Z,21.53
2018-12-16T01:46:08.870Z,17.13
2018-12-16T01:48:36.424Z,17.43
2018-12-16T01:51:03.991Z,19.57
2018-12-16T01:53:31.517Z,15.70
2018-12-16T01:55:59.074Z,17.63
2018-12-16T01:58:26.644Z,17.43
2018-12-16T02:00:54.203Z,16.57
2018-12-16T02:03:21.932Z,17.37
2018-12-16T02:05:49.477Z,17.60
2018-12-16T02:08:17.122Z,16.27
2018-12-16T02:10:44.685Z,19.20
2018-12-16T02:13:12.346Z,18.83
2018-12-16T02:15:39.931Z,17.20
2018-12-16T02:18:07.495Z,21.77
2018-12-16T02:20:35.040Z,19.90
2018-12-16T02:23:02.553Z,15.73
2018-12-16T02:25:30.430Z,20.07
2018-12-16T02:27:57.977Z,16.77
2018-12-16T02:30:28.638Z,18.47
2018-12-16T02:32:56.230Z,18.33
2018-12-16T02:35:23.799Z,18.87
2018-12-16T02:37:51.342Z,18.63
2018-12-16T02:40:19.194Z,17.27
2018-12-16T02:42:46.752Z,18.80
2018-12-16T02:45:15.930Z,14.20
2018-12-16T02:47:46.753Z,19.13
2018-12-16T02:50:15.039Z,15.87
2018-12-16T02:52:42.567Z,18.10
2018-12-16T02:55:17.949Z,17.67
2018-12-16T02:57:45.490Z,17.17
2018-12-16T03:00:13.195Z,18.50
2018-12-16T03:02:40.751Z,19.13
2018-12-16T03:05:08.300Z,18.73
2018-12-16T03:07:35.857Z,16.93
2018-12-16T03:10:04.259Z,20.10
2018-12-16T03:12:31.813Z,15.83
2018-12-16T03:14:59.403Z,16.23
2018-12-16T03:17:27.180Z,16.77
2018-12-16T03:19:54.688Z,14.20
2018-12-16T03:22:22.231Z,17.00
2018-12-16T03:24:49.791Z,19.30
2018-12-16T03:27:17.340Z,20.03
2018-12-16T03:29:44.973Z,18.30
2018-12-16T03:32:12.540Z,16.50
2018-12-16T03:34:40.385Z,15.83
2018-12-16T03:37:08.829Z,19.53
2018-12-16T03:39:36.383Z,20.07
2018-12-16T03:42:03.997Z,17.77
2018-12-16T03:44:31.546Z,20.03
2018-12-16T03:46:59.120Z,17.23
2018-12-16T03:49:26.665Z,18.93
2018-12-16T03:51:54.217Z,19.50
2018-12-16T03:54:22.440Z,18.70
2018-12-16T03:56:50.124Z,17.40
2018-12-16T03:59:18.315Z,21.03
2018-12-16T04:01:47.988Z,16.53
2018-12-16T04:04:15.531Z,20.07
2018-12-16T04:06:43.474Z,20.80
2018-12-16T04:09:11.353Z,19.97
2018-12-16T04:11:38.910Z,20.90
2018-12-16T04:14:06.533Z,20.90
2018-12-16T04:16:34.105Z,21.47
2018-12-16T04:19:01.659Z,19.80
2018-12-16T04:21:29.472Z,16.70
2018-12-16T04:23:57.229Z,20.07
2018-12-16T04:26:24.747Z,21.47
2018-12-16T04:28:52.450Z,16.23
2018-12-16T04:31:20.225Z,19.73
2018-12-16T04:33:47.788Z,17.87
2018-12-16T04:36:15.392Z,20.30
2018-12-16T04:38:43.007Z,20.20
2018-12-16T04:41:10.622Z,20.20
2018-12-16T04:43:38.151Z,20.33
2018-12-16T04:46:05.734Z,20.43
2018-12-16T04:48:33.241Z,21.77
2018-12-16T04:51:00.823Z,20.70
2018-12-16T04:53:34.832Z,17.10
2018-12-16T04:55:58.283Z,18.87
2018-12-16T04:58:25.826Z,21.73
2018-12-16T05:00:53.352Z,19.87
2018-12-16T05:03:20.909Z,25.57
2018-12-16T05:05:48.420Z,24.63
2018-12-16T05:08:15.974Z,23.67
2018-12-16T05:10:43.481Z,19.40
2018-12-16T05:13:11.049Z,22.20
2018-12-16T05:15:38.673Z,19.03
2018-12-16T05:18:06.246Z,22.53
2018-12-16T05:20:33.888Z,24.50
2018-12-16T05:23:01.473Z,20.13
2018-12-16T05:25:29.009Z,22.03
2018-12-16T05:27:56.734Z,23.20
2018-12-16T05:30:24.307Z,23.97
2018-12-16T05:32:51.817Z,28.03
2018-12-16T05:35:19.501Z,27.40
2018-12-16T05:37:47.017Z,23.80
2018-12-16T05:40:14.581Z,22.97
2018-12-16T05:42:42.125Z,22.07
2018-12-16T05:45:09.950Z,25.40
2018-12-16T05:47:37.570Z,26.33
2018-12-16T05:50:05.971Z,24.03
2018-12-16T05:52:33.524Z,25.40
2018-12-16T05:55:01.151Z,26.40
2018-12-16T05:57:28.815Z,24.97
2018-12-16T05:59:56.374Z,24.93
2018-12-16T06:02:23.937Z,27.13
2018-12-16T06:04:51.490Z,25.67
2018-12-16T06:07:19.057Z,25.80
2018-12-16T06:09:46.651Z,23.93
2018-12-16T06:12:14.252Z,26.20
2018-12-16T06:14:41.756Z,27.60
2018-12-16T06:17:09.277Z,24.53
2018-12-16T06:19:36.805Z,25.27
2018-12-16T06:22:04.309Z,25.67
2018-12-16T06:24:31.948Z,28.53
2018-12-16T06:26:59.466Z,23.20
2018-12-16T06:29:27.003Z,25.43
2018-12-16T06:31:55.326Z,25.07
2018-12-16T06:34:23.346Z,26.30
2018-12-16T06:36:51.014Z,24.70
2018-12-16T06:39:18.553Z,24.13
2018-12-16T06:41:46.440Z,27.30
2018-12-16T06:44:13.956Z,24.43
2018-12-16T06:46:41.567Z,26.43
2018-12-16T06:49:09.133Z,30.60
2018-12-16T06:51:37.173Z,30.77
2018-12-16T06:54:04.718Z,25.97
2018-12-16T06:56:32.275Z,28.93
2018-12-16T06:58:59.838Z,29.93
2018-12-16T07:01:27.595Z,27.50
2018-12-16T07:03:55.156Z,28.27
2018-12-16T07:06:22.832Z,29.17
2018-12-16T07:08:50.380Z,27.60
2018-12-16T07:11:17.975Z,27.77
2018-12-16T07:13:45.523Z,25.67
2018-12-16T07:16:13.082Z,25.30
2018-12-16T07:18:40.656Z,24.53
2018-12-16T07:21:08.300Z,26.20
2018-12-16T07:23:35.912Z,28.57
2018-12-16T07:26:03.501Z,26.20
2018-12-16T07:28:31.074Z,29.33
2018-12-16T07:30:58.622Z,24.97
2018-12-16T07:33:26.185Z,25.07
2018-12-16T07:35:53.716Z,32.03
2018-12-16T07:38:21.256Z,26.47
2018-12-16T07:40:48.780Z,30.80
2018-12-16T07:43:16.326Z,26.80
2018-12-16T07:45:44.030Z,27.87
2018-12-16T07:48:11.647Z,25.30
2018-12-16T07:50:39.195Z,25.30
2018-12-16T07:53:06.715Z,22.30
2018-12-16T07:55:34.325Z,27.73
2018-12-16T07:58:01.983Z,27.10
2018-12-16T08:00:29.533Z,23.47
2018-12-16T08:02:57.054Z,25.80
2018-12-16T08:05:24.647Z,22.87
2018-12-16T08:07:52.304Z,22.13
2018-12-16T08:10:19.835Z,24.63
2018-12-16T08:12:47.445Z,27.53
2018-12-16T08:15:15.017Z,22.87
2018-12-16T08:17:42.542Z,22.53
2018-12-16T08:20:11.062Z,23.97
2018-12-16T08:22:38.613Z,23.90
2018-12-16T08:25:06.351Z,26.17
2018-12-16T08:27:33.894Z,24.73
2018-12-16T08:30:01.427Z,29.50
2018-12-16T08:32:28.994Z,25.80
2018-12-16T08:34:56.582Z,23.83
2018-12-16T08:37:24.132Z,24.67
2018-12-16T08:39:51.697Z,26.07
2018-12-16T08:42:19.425Z,21.67
2018-12-16T08:44:46.968Z,24.47
2018-12-16T08:47:14.475Z,24.37
2018-12-16T08:49:42.081Z,23.93
2018-12-16T08:52:09.596Z,24.63
2018-12-16T08:54:37.136Z,24.23
2018-12-16T08:57:04.765Z,22.63
2018-12-16T08:59:32.401Z,21.43
2018-12-16T09:01:59.926Z,21.87
2018-12-16T09:04:28.049Z,21.07
2018-12-16T09:06:55.609Z,24.87
2018-12-16T09:09:23.751Z,25.07
2018-12-16T09:11:51.320Z,27.07
2018-12-16T09:14:18.866Z,22.97
2018-12-16T09:16:46.376Z,25.40
2018-12-16T09:19:13.923Z,24.93
2018-12-16T09:21:41.588Z,24.73
2018-12-16T09:24:09.136Z,26.30
2018-12-16T09:26:36.684Z,23.60
2018-12-16T09:29:04.229Z,26.37
2018-12-16T09:31:31.748Z,26.77
2018-12-16T09:33:59.367Z,22.20
2018-12-16T09:36:26.902Z,24.20
2018-12-16T09:38:54.456Z,25.50
2018-12-16T09:41:21.970Z,26.07
2018-12-16T09:43:49.638Z,24.67
2018-12-16T09:46:17.182Z,27.17
2018-12-16T09:48:44.701Z,26.83
2018-12-16T09:51:12.261Z,26.00
2018-12-16T09:53:39.768Z,28.90
2018-12-16T09:56:07.717Z,25.50
2018-12-16T09:58:35.294Z,26.73
2018-12-16T10:01:02.856Z,22.93
2018-12-16T10:03:30.421Z,28.87
2018-12-16T10:05:58.240Z,27.87
2018-12-16T10:08:26.162Z,27.10
2018-12-16T10:10:53.721Z,26.07
2018-12-16T10:13:21.326Z,26.03
2018-12-16T10:18:30.882Z,27.30
2018-12-16T10:20:59.008Z,28.00
2018-12-16T10:23:27.022Z,28.13
2018-12-16T10:25:54.589Z,26.43
2018-12-16T10:28:22.158Z,23.73
2018-12-16T10:30:49.822Z,25.37
2018-12-16T10:33:17.776Z,23.40
2018-12-16T10:35:45.529Z,30.83
2018-12-16T10:38:13.111Z,29.00
2018-12-16T10:40:40.677Z,25.60
2018-12-16T10:43:09.662Z,26.23
2018-12-16T10:45:37.425Z,25.07
2018-12-16T10:48:05.313Z,32.50
2018-12-16T10:50:32.883Z,27.83
2018-12-16T10:53:00.454Z,28.83
2018-12-16T10:55:28.021Z,28.27
2018-12-16T10:57:55.561Z,27.17
2018-12-16T11:00:29.056Z,36.03
2018-12-16T11:02:56.597Z,30.70
2018-12-16T11:05:24.718Z,27.33
2018-12-16T11:07:52.277Z,30.40
2018-12-16T11:10:19.934Z,26.90
2018-12-16T11:12:48.052Z,25.37
2018-12-16T11:15:15.564Z,28.13
2018-12-16T11:17:43.130Z,27.63
2018-12-16T11:20:10.733Z,29.23
2018-12-16T11:22:38.638Z,27.87
2018-12-16T11:25:08.352Z,26.10
2018-12-16T11:27:36.119Z,27.80
2018-12-16T11:30:06.608Z,27.87
2018-12-16T11:32:36.519Z,21.73
2018-12-16T11:35:05.626Z,26.77
2018-12-16T11:37:33.494Z,25.23
2018-12-16T11:40:01.047Z,29.00
2018-12-16T11:42:28.563Z,30.23
2018-12-16T11:44:56.126Z,27.00
2018-12-16T11:47:23.770Z,22.53
2018-12-16T11:49:52.020Z,26.37
2018-12-16T11:52:19.576Z,27.17
2018-12-16T11:54:47.080Z,28.87
2018-12-16T11:57:14.646Z,31.17
2018-12-16T11:59:42.288Z,23.23
2018-12-16T12:02:09.873Z,23.07
2018-12-16T12:04:37.407Z,24.90
2018-12-16T12:07:04.967Z,27.47
2018-12-16T12:09:32.499Z,27.80
2018-12-16T12:12:00.046Z,24.60
2018-12-16T12:14:27.636Z,20.80
2018-12-16T12:16:56.073Z,22.70
2018-12-16T12:19:28.500Z,25.20
2018-12-16T12:21:56.862Z,24.90
2018-12-16T12:24:24.406Z,26.10
2018-12-16T12:26:51.964Z,24.70
2018-12-16T12:29:19.609Z,23.40
2018-12-16T12:31:47.162Z,20.93
2018-12-16T12:34:14.766Z,23.53
2018-12-16T12:36:42.305Z,27.57
2018-12-16T12:39:09.887Z,26.83
2018-12-16T12:41:38.222Z,22.27
2018-12-16T12:44:05.744Z,20.93
2018-12-16T12:46:33.382Z,26.43
2018-12-16T12:49:13.488Z,19.60
2018-12-16T12:51:41.117Z,21.47
2018-12-16T12:54:09.014Z,21.53
2018-12-16T12:56:36.585Z,18.60
2018-12-16T12:59:04.203Z,21.17
2018-12-16T13:01:31.748Z,23.23
2018-12-16T13:03:59.326Z,17.60
2018-12-16T13:06:28.142Z,20.93
2018-12-16T13:08:55.726Z,19.43
2018-12-16T13:11:23.524Z,17.57
2018-12-16T13:13:51.818Z,19.90
2018-12-16T13:16:19.373Z,20.47
2018-12-16T13:18:47.233Z,20.70
2018-12-16T13:21:14.984Z,20.27
2018-12-16T13:23:42.566Z,20.63
2018-12-16T13:26:10.143Z,18.37
2018-12-16T13:28:37.708Z,22.77
2018-12-16T13:31:05.246Z,18.83
2018-12-16T13:33:32.790Z,18.37
2018-12-16T13:36:00.780Z,19.67
2018-12-16T13:38:28.342Z,19.10
2018-12-16T13:40:55.933Z,20.27
2018-12-16T13:43:23.724Z,18.57
2018-12-16T13:45:51.258Z,24.30
2018-12-16T13:48:18.844Z,20.67
2018-12-16T13:50:46.520Z,20.67
2018-12-16T13:53:14.704Z,20.70
2018-12-16T13:55:42.690Z,23.97
2018-12-16T13:58:10.262Z,23.53
2018-12-16T14:00:37.826Z,23.23
2018-12-16T14:03:05.352Z,21.30
2018-12-16T14:05:32.936Z,20.27
2018-12-16T14:08:00.458Z,20.40
2018-12-16T14:10:28.958Z,23.73
2018-12-16T14:12:56.549Z,22.23
2018-12-16T14:15:24.250Z,19.27
2018-12-16T14:17:51.795Z,19.10
2018-12-16T14:20:19.397Z,20.83
2018-12-16T14:22:46.967Z,20.70
2018-12-16T14:25:14.564Z,22.40
2018-12-16T14:27:42.169Z,22.50
2018-12-16T14:30:10.687Z,22.63
2018-12-16T14:32:38.249Z,21.57
2018-12-16T14:35:08.337Z,17.80
2018-12-16T14:37:35.958Z,22.73
2018-12-16T14:40:06.026Z,25.50
2018-12-16T14:42:33.853Z,23.57
2018-12-16T14:45:01.369Z,23.50
2018-12-16T14:47:28.985Z,25.00
2018-12-16T14:49:56.572Z,23.20
2018-12-16T14:52:24.127Z,28.67
2018-12-16T14:54:52.006Z,27.83
2018-12-16T14:57:19.542Z,29.47
2018-12-16T14:59:47.257Z,26.20
2018-12-16T15:02:14.772Z,27.33
2018-12-16T15:04:42.333Z,24.07
2018-12-16T15:07:09.849Z,25.37
2018-12-16T15:09:38.106Z,23.30
2018-12-16T15:12:05.678Z,27.27
2018-12-16T15:14:33.245Z,22.27
2018-12-16T15:17:01.265Z,23.47
2018-12-16T15:19:28.818Z,23.13
2018-12-16T15:21:56.387Z,20.47
2018-12-16T15:24:23.929Z,21.47
2018-12-16T15:26:52.674Z,21.43
2018-12-16T15:29:20.646Z,26.57
2018-12-16T15:31:48.197Z,20.00
2018-12-16T15:34:15.758Z,22.97
2018-12-16T15:36:43.289Z,22.90
2018-12-16T15:39:11.817Z,27.73
2018-12-16T15:41:39.831Z,25.63
2018-12-16T15:44:07.395Z,22.70
2018-12-16T15:46:34.957Z,23.63
2018-12-16T15:49:02.508Z,21.57
2018-12-16T15:51:31.401Z,26.43
2018-12-16T15:53:58.928Z,25.73
2018-12-16T15:56:26.521Z,26.43
2018-12-16T15:58:54.103Z,25.43
2018-12-16T16:01:21.693Z,27.60
2018-12-16T16:03:49.246Z,26.13
2018-12-16T16:06:17.137Z,26.87
2018-12-16T16:08:44.708Z,26.00
2018-12-16T16:11:12.257Z,24.00
2018-12-16T16:13:39.844Z,25.73
2018-12-16T16:16:07.412Z,25.80
2018-12-16T16:18:35.271Z,23.97
2018-12-16T16:21:03.272Z,23.43
2018-12-16T16:23:30.850Z,27.07
2018-12-16T16:25:58.459Z,27.40
2018-12-16T16:28:26.640Z,25.23
2018-12-16T16:30:55.118Z,26.57
2018-12-16T16:33:22.784Z,25.67
2018-12-16T16:35:51.094Z,26.40
2018-12-16T16:38:18.619Z,28.00
2018-12-16T16:40:46.461Z,28.67
2018-12-16T16:43:14.341Z,30.70
2018-12-16T16:45:42.086Z,23.10
2018-12-16T16:48:09.637Z,22.20
2018-12-16T16:50:37.264Z,19.70
2018-12-16T16:53:04.896Z,18.90
2018-12-16T16:55:33.385Z,22.30
2018-12-16T16:58:00.946Z,22.27
2018-12-16T17:00:28.551Z,21.97
2018-12-16T17:02:56.832Z,22.67
2018-12-16T17:05:24.443Z,23.67
2018-12-16T17:07:51.973Z,20.63
2018-12-16T17:10:20.582Z,23.07
2018-12-16T17:12:48.174Z,28.37
2018-12-16T17:15:16.045Z,25.27
2018-12-16T17:17:44.313Z,24.23
2018-12-16T17:20:11.956Z,27.97
2018-12-16T17:22:39.480Z,25.27
2018-12-16T17:25:07.224Z,28.03
2018-12-16T17:27:34.837Z,27.70
2018-12-16T17:30:02.515Z,23.93
2018-12-16T17:32:30.107Z,23.23
2018-12-16T17:34:57.644Z,22.57
2018-12-16T17:37:25.279Z,22.17
2018-12-16T17:39:52.889Z,25.53
2018-12-16T17:42:20.602Z,24.13
2018-12-16T17:44:48.892Z,28.93
2018-12-16T17:47:16.563Z,26.07
2018-12-16T17:49:44.086Z,26.37
2018-12-16T17:52:11.678Z,25.57
2018-12-16T17:54:39.203Z,32.33
2018-12-16T17:57:06.904Z,23.20
2018-12-16T17:59:34.468Z,26.67
2018-12-16T18:02:02.602Z,24.87
2018-12-16T18:04:30.158Z,19.60
2018-12-16T18:06:57.668Z,22.33
2018-12-16T18:09:25.692Z,23.53
2018-12-16T18:11:53.266Z,23.50
2018-12-16T18:14:20.809Z,28.10
2018-12-16T18:16:48.381Z,28.10
2018-12-16T18:19:15.910Z,28.60
2018-12-16T18:21:43.777Z,23.10
2018-12-16T18:24:11.328Z,26.03
2018-12-16T18:26:44.043Z,25.43
2018-12-16T18:29:08.621Z,24.23
2018-12-16T18:31:36.198Z,27.30
2018-12-16T18:34:03.963Z,29.30
2018-12-16T18:36:31.512Z,26.23
2018-12-16T18:38:59.083Z,27.03
2018-12-16T18:41:26.624Z,22.53
2018-12-16T18:43:55.009Z,28.90
2018-12-16T18:46:22.586Z,28.53
2018-12-16T18:48:50.143Z,28.33
2018-12-16T18:51:17.664Z,33.57
2018-12-16T18:53:45.227Z,35.20
2018-12-16T18:56:12.736Z,26.93
2018-12-16T18:58:40.312Z,33.03
2018-12-16T19:01:07.906Z,27.23
2018-12-16T19:03:35.604Z,31.63
2018-12-16T19:06:03.113Z,25.10
2018-12-16T19:08:30.690Z,26.20
2018-12-16T19:10:58.245Z,29.10
2018-12-16T19:13:25.819Z,26.33
2018-12-16T19:15:53.568Z,28.93
2018-12-16T19:18:22.193Z,25.50
2018-12-16T19:20:49.750Z,24.53
2018-12-16T19:23:17.310Z,25.90
2018-12-16T19:25:44.891Z,28.30
2018-12-16T19:28:12.494Z,30.60
2018-12-16T19:30:40.058Z,33.23
2018-12-16T19:33:07.753Z,28.23
2018-12-16T19:35:35.281Z,31.63
2018-12-16T19:38:03.346Z,27.73
2018-12-16T19:40:31.355Z,24.87
2018-12-16T19:42:59.119Z,22.03
2018-12-16T19:45:26.685Z,21.27
2018-12-16T19:47:54.288Z,20.00
2018-12-16T19:50:23.105Z,24.13
2018-12-16T19:52:50.623Z,24.37
2018-12-16T19:55:18.983Z,24.40
2018-12-16T19:57:46.498Z,24.77
2018-12-16T20:00:14.136Z,27.23
2018-12-16T20:02:41.983Z,25.40
2018-12-16T20:05:24.049Z,23.90
2018-12-16T20:07:51.572Z,25.83
2018-12-16T20:10:19.131Z,28.37
2018-12-16T20:12:46.669Z,25.90
2018-12-16T20:15:14.290Z,23.20
2018-12-16T20:17:42.818Z,27.77
2018-12-16T20:20:10.471Z,26.50
2018-12-16T20:22:38.017Z,27.53
2018-12-16T20:25:06.049Z,25.27
2018-12-16T20:27:33.613Z,27.10
2018-12-16T20:30:01.146Z,28.97
2018-12-16T20:32:28.710Z,24.73
2018-12-16T20:34:56.237Z,26.63
2018-12-16T20:37:23.812Z,24.63
2018-12-16T20:39:51.388Z,25.13
2018-12-16T20:42:19.753Z,22.27
2018-12-16T20:44:47.474Z,22.77
2018-12-16T20:47:15.004Z,20.57
2018-12-16T20:49:42.593Z,22.67
2018-12-16T20:52:10.539Z,20.80
2018-12-16T20:54:38.105Z,21.60
2018-12-16T20:57:05.781Z,24.73
2018-12-16T20:59:33.309Z,23.47
2018-12-16T21:02:00.865Z,25.57
2018-12-16T21:04:28.466Z,26.10
2018-12-16T21:06:55.992Z,28.33
2018-12-16T21:09:23.548Z,32.57
2018-12-16T21:11:56.827Z,28.13
2018-12-16T21:14:30.121Z,26.77
2018-12-16T21:17:03.434Z,32.27
2018-12-16T21:19:31.285Z,29.00
2018-12-16T21:21:58.830Z,27.17
2018-12-16T21:24:26.447Z,28.43
2018-12-16T21:26:54.257Z,27.97
2018-12-16T21:29:21.837Z,24.20
2018-12-16T21:31:49.362Z,27.30
2018-12-16T21:34:16.942Z,26.60
2018-12-16T21:36:44.555Z,23.53
2018-12-16T21:39:12.405Z,24.83
2018-12-16T21:41:39.941Z,28.90
2018-12-16T21:44:07.488Z,27.77
2018-12-16T21:46:35.222Z,28.93
2018-12-16T21:49:02.758Z,26.23
2018-12-16T21:51:30.338Z,27.93
2018-12-16T21:53:57.934Z,26.47
2018-12-16T21:56:25.854Z,28.47
2018-12-16T21:58:53.425Z,27.17
2018-12-16T22:01:20.966Z,28.70
2018-12-16T22:03:48.520Z,29.53
2018-12-16T22:06:16.349Z,28.90
2018-12-16T22:08:43.881Z,25.00
2018-12-16T22:11:11.437Z,28.63
2018-12-16T22:13:44.092Z,30.00
2018-12-16T22:16:11.680Z,29.20
2018-12-16T22:18:39.529Z,26.00
2018-12-16T22:21:07.597Z,28.47
2018-12-16T22:23:35.155Z,26.47
2018-12-16T22:26:02.922Z,24.77
2018-12-16T22:28:30.466Z,25.03
2018-12-16T22:30:58.248Z,29.17
2018-12-16T22:33:25.815Z,28.13
2018-12-16T22:35:53.389Z,28.70
2018-12-16T22:38:21.705Z,26.43
2018-12-16T22:40:49.281Z,26.73
2018-12-16T22:43:17.100Z,27.37
2018-12-16T22:45:44.677Z,28.20
2018-12-16T22:48:12.261Z,30.77
2018-12-16T22:50:39.777Z,34.57
2018-12-16T22:53:07.334Z,28.80
2018-12-16T22:55:34.873Z,28.57
2018-12-16T22:58:03.093Z,30.90
2018-12-16T23:00:30.734Z,28.97
2018-12-16T23:02:58.301Z,34.70
2018-12-16T23:05:26.005Z,39.20
2018-12-16T23:07:53.544Z,34.73
2018-12-16T23:10:22.840Z,30.73
2018-12-16T23:12:50.423Z,42.90
2018-12-16T23:15:18.623Z,35.03
2018-12-16T23:17:46.193Z,34.77
2018-12-16T23:20:18.044Z,33.83
2018-12-16T23:22:45.642Z,30.60
2018-12-16T23:25:13.892Z,26.07
2018-12-16T23:27:41.454Z,27.73
2018-12-16T23:30:09.522Z,23.97
2018-12-16T23:32:37.291Z,27.83
2018-12-16T23:35:04.943Z,36.77
2018-12-16T23:37:32.509Z,39.07
2018-12-16T23:40:00.680Z,37.23
2018-12-16T23:42:28.350Z,30.53
2018-12-16T23:44:56.011Z,32.83
2018-12-16T23:47:23.893Z,34.27
2018-12-16T23:49:51.457Z,33.67
2018-12-16T23:52:19.060Z,31.13
2018-12-16T23:54:46.375Z,30.80
2018-12-16T23:57:13.930Z,32.63
2018-12-16T23:59:41.779Z,39.73
